Time;durP1;ratioP1;P1;durP2;ratioP2;P2;SDS_P1;SDS_P2;PMS_P1;PMS_P2;Temp;Humidity;BMP_temperature;BMP_pressure;BME280_temperature;BME280_humidity;BME280_pressure;Samples;Min_cycle;Max_cycle;Signal;HPM_P1;HPM_P2
2021/03/01 00:01:26;;;;;;;13.23;8.65;;;2.80;99.90;;;;;;6169080;28;20122;-86
2021/03/01 00:04:27;;;;;;;13.70;9.00;;;2.90;99.90;;;;;;6169215;28;20910;-86
2021/03/01 00:07:27;;;;;;;14.55;9.27;;;2.90;99.90;;;;;;6168701;28;20029;-85
2021/03/01 00:10:28;;;;;;;16.98;9.02;;;2.90;99.90;;;;;;6168761;28;20026;-85
2021/03/01 00:13:29;;;;;;;16.48;9.35;;;2.80;99.90;;;;;;6184927;28;20030;-84
2021/03/01 00:16:29;;;;;;;16.40;8.70;;;2.70;99.90;;;;;;6168800;28;20081;-87
2021/03/01 00:19:30;;;;;;;13.15;8.93;;;2.70;99.90;;;;;;6168694;28;20129;-85
2021/03/01 00:22:31;;;;;;;12.48;9.40;;;2.80;99.90;;;;;;6184763;28;20057;-85
2021/03/01 00:25:31;;;;;;;12.52;8.48;;;2.80;99.90;;;;;;6168562;28;20026;-87
2021/03/01 00:28:32;;;;;;;16.15;8.43;;;2.80;99.90;;;;;;6184747;28;20048;-86
2021/03/01 00:31:33;;;;;;;12.75;9.23;;;2.60;99.90;;;;;;6172929;28;20092;-85
2021/03/01 00:34:33;;;;;;;12.57;8.80;;;2.50;99.90;;;;;;6157810;28;20099;-86
2021/03/01 00:37:34;;;;;;;12.55;8.80;;;2.90;99.90;;;;;;6173428;28;20034;-85
2021/03/01 00:40:35;;;;;;;13.88;8.98;;;2.60;99.90;;;;;;6173880;28;20037;-86
2021/03/01 00:43:36;;;;;;;13.23;8.52;;;2.50;99.90;;;;;;6173315;28;20083;-86
2021/03/01 00:46:36;;;;;;;12.85;8.48;;;2.50;99.90;;;;;;6177369;28;20034;-85
2021/03/01 00:49:37;;;;;;;14.52;8.55;;;2.50;99.90;;;;;;6173008;28;20073;-85
2021/03/01 00:52:38;;;;;;;12.80;8.68;;;2.60;99.90;;;;;;6168656;28;20049;-87
2021/03/01 00:55:38;;;;;;;13.13;8.77;;;2.60;99.90;;;;;;6171660;28;20022;-86
2021/03/01 00:58:39;;;;;;;13.63;9.57;;;2.70;99.90;;;;;;6172688;28;20030;-85
2021/03/01 01:01:39;;;;;;;12.30;8.35;;;2.60;99.90;;;;;;6188916;28;20034;-85
2021/03/01 01:04:40;;;;;;;16.52;9.23;;;2.50;99.90;;;;;;6176157;28;20038;-85
2021/03/01 01:07:41;;;;;;;15.18;9.65;;;2.70;99.90;;;;;;6172180;28;20384;-86
2021/03/01 01:10:41;;;;;;;14.18;8.55;;;2.50;99.90;;;;;;6172439;28;20152;-87
2021/03/01 01:13:42;;;;;;;13.85;8.82;;;2.70;99.90;;;;;;6172523;28;20030;-85
2021/03/01 01:16:43;;;;;;;12.07;8.52;;;2.80;99.90;;;;;;6172732;28;20141;-85
2021/03/01 01:19:43;;;;;;;13.27;8.85;;;2.50;99.90;;;;;;6172051;28;20065;-85
2021/03/01 01:22:44;;;;;;;15.95;9.27;;;;;;;;;;6182270;28;20026;-85
2021/03/01 01:25:45;;;;;;;12.98;8.95;;;2.60;98.50;;;;;;6188461;28;20026;-86
2021/03/01 01:28:45;;;;;;;12.98;8.98;;;2.60;99.90;;;;;;6188055;28;20036;-87
2021/03/01 01:31:46;;;;;;;15.05;9.63;;;;;;;;;;6188217;28;20069;-85
2021/03/01 01:34:47;;;;;;;12.38;8.52;;;;;;;;;;6188326;28;20022;-87
2021/03/01 01:37:48;;;;;;;14.30;9.60;;;;;;;;;;6188344;28;20026;-85
2021/03/01 01:40:50;;;;;;;14.35;9.25;;;;;;;;;;6187376;28;21006;-85
2021/03/01 01:43:51;;;;;;;12.68;8.73;;;;;;;;;;6204533;28;20427;-86
2021/03/01 01:46:52;;;;;;;14.93;9.07;;;;;;;;;;6187800;28;20468;-86
2021/03/01 01:49:53;;;;;;;14.60;9.20;;;;;;;;;;6187498;28;20030;-85
2021/03/01 01:52:54;;;;;;;11.77;8.25;;;1.80;99.90;;;;;;6187674;28;20042;-86
2021/03/01 01:55:55;;;;;;;13.40;8.67;;;1.60;99.90;;;;;;6171561;28;20103;-85
2021/03/01 01:58:56;;;;;;;15.20;9.23;;;1.70;99.90;;;;;;6171515;28;20032;-86
2021/03/01 02:01:57;;;;;;;14.93;8.95;;;1.70;99.90;;;;;;6171504;28;20041;-85
2021/03/01 02:04:58;;;;;;;13.60;9.07;;;1.80;99.90;;;;;;6171468;28;20026;-85
2021/03/01 02:08:06;;;;;;;13.15;8.55;;;1.80;99.90;;;;;;6171096;28;20034;-87
2021/03/01 02:11:28;;;;;;;13.88;9.07;;;1.90;99.90;;;;;;6172017;28;20125;-86
2021/03/01 02:14:31;;;;;;;12.20;7.97;;;1.90;99.90;;;;;;6176007;28;20089;-85
2021/03/01 02:17:32;;;;;;;13.52;8.73;;;1.70;99.90;;;;;;6203426;28;20353;-85
2021/03/01 02:20:33;;;;;;;18.25;9.15;;;1.60;99.90;;;;;;6179742;28;20119;-88
2021/03/01 02:23:33;;;;;;;16.13;8.35;;;2.00;99.90;;;;;;6170840;28;20040;-86
2021/03/01 02:26:34;;;;;;;12.90;8.65;;;1.60;99.90;;;;;;6170690;28;20117;-86
2021/03/01 02:29:35;;;;;;;11.38;7.90;;;1.70;99.90;;;;;;6170887;28;20464;-86
2021/03/01 02:32:36;;;;;;;11.25;7.75;;;2.20;99.90;;;;;;6186504;28;20169;-88
2021/03/01 02:35:40;;;;;;;12.52;8.52;;;1.70;99.90;;;;;;6169794;28;20041;-87
2021/03/01 02:38:41;;;;;;;13.05;8.23;;;1.80;99.90;;;;;;6186713;28;20030;-84
2021/03/01 02:41:41;;;;;;;13.43;8.18;;;2.10;99.90;;;;;;6170477;28;20603;-85
2021/03/01 02:44:42;;;;;;;12.00;8.55;;;1.70;99.90;;;;;;6186609;28;20117;-84
2021/03/01 02:47:43;;;;;;;12.70;8.18;;;1.70;99.90;;;;;;6170292;28;20022;-85
2021/03/01 02:50:44;;;;;;;13.40;8.90;;;1.60;99.90;;;;;;6170050;28;20091;-84
2021/03/01 02:53:45;;;;;;;13.65;8.75;;;;;;;;;;6170308;28;20030;-85
2021/03/01 02:56:47;;;;;;;13.88;9.05;;;1.70;99.90;;;;;;6186464;28;20380;-84
2021/03/01 02:59:48;;;;;;;12.00;8.55;;;1.60;99.90;;;;;;6170219;28;20062;-87
2021/03/01 03:02:48;;;;;;;11.57;8.18;;;1.70;99.90;;;;;;6170197;28;20056;-86
2021/03/01 03:05:49;;;;;;;13.23;8.23;;;1.70;99.90;;;;;;6185489;28;20109;-84
2021/03/01 03:08:51;;;;;;;15.07;9.05;;;1.70;99.90;;;;;;6169795;28;20041;-85
2021/03/01 03:11:51;;;;;;;15.02;9.18;;;2.40;99.90;;;;;;6186136;28;20041;-84
2021/03/01 03:14:53;;;;;;;15.43;8.80;;;1.80;99.90;;;;;;6169184;28;20057;-85
2021/03/01 03:17:53;;;;;;;14.75;9.15;;;1.90;99.90;;;;;;6170730;28;20026;-85
2021/03/01 03:20:54;;;;;;;14.77;9.77;;;;;;;;;;6169128;28;20041;-86
2021/03/01 03:23:55;;;;;;;13.38;9.32;;;;;;;;;;6201832;28;20088;-84
2021/03/01 03:26:57;;;;;;;12.52;8.90;;;;;;;;;;6185649;28;20077;-85
2021/03/01 03:29:58;;;;;;;14.50;9.23;;;;;;;;;;6185433;28;20026;-85
2021/03/01 03:32:59;;;;;;;14.82;9.30;;;;;;;;;;6185479;28;20053;-85
2021/03/01 03:36:00;;;;;;;17.30;8.65;;;;;;;;;;6185428;28;20060;-85
2021/03/01 03:39:04;;;;;;;12.85;8.63;;;1.30;99.90;;;;;;6185771;28;20030;-84
2021/03/01 03:42:05;;;;;;;14.77;8.98;;;;;;;;;;6169652;28;20030;-85
2021/03/01 03:45:07;;;;;;;13.45;9.00;;;;;;;;;;6185467;28;20024;-84
2021/03/01 03:48:07;;;;;;;14.32;9.85;;;1.20;99.90;;;;;;6201484;28;20026;-85
2021/03/01 03:51:10;;;;;;;13.20;9.05;;;1.20;99.90;;;;;;6169432;28;20133;-84
2021/03/01 03:54:16;;;;;;;13.43;9.10;;;1.40;99.90;;;;;;6169286;28;20030;-87
2021/03/01 03:57:21;;;;;;;12.73;9.25;;;1.30;99.90;;;;;;6169746;28;20188;-85
2021/03/01 04:00:22;;;;;;;12.27;8.68;;;1.80;99.90;;;;;;6169250;28;20537;-84
2021/03/01 04:03:23;;;;;;;13.93;9.00;;;1.40;99.90;;;;;;6170062;28;20026;-85
2021/03/01 04:06:23;;;;;;;14.45;9.52;;;1.30;99.90;;;;;;6173713;28;20038;-84
2021/03/01 04:09:25;;;;;;;56.80;25.55;;;1.30;99.90;;;;;;6173645;28;20495;-86
2021/03/01 04:12:25;;;;;;;14.55;10.10;;;1.60;99.90;;;;;;6190137;28;20073;-87
2021/03/01 04:15:26;;;;;;;13.10;8.93;;;1.20;99.90;;;;;;6188943;28;20631;-86
2021/03/01 04:18:33;;;;;;;14.77;9.43;;;1.10;99.90;;;;;;6189869;28;20029;-85
2021/03/01 04:21:35;;;;;;;13.73;9.52;;;1.10;99.90;;;;;;6173956;28;20026;-85
2021/03/01 04:24:36;;;;;;;16.92;10.38;;;1.10;99.90;;;;;;6173158;28;20719;-84
2021/03/01 04:27:38;;;;;;;15.20;10.63;;;1.20;99.90;;;;;;6205458;28;20587;-85
2021/03/01 04:30:39;;;;;;;46.97;20.20;;;1.10;99.90;;;;;;6189494;28;20268;-85
2021/03/01 04:33:40;;;;;;;15.60;10.00;;;2.40;99.90;;;;;;6188967;28;20030;-86
2021/03/01 04:36:41;;;;;;;15.85;10.65;;;;;;;;;;6189272;28;20033;-86
2021/03/01 04:39:42;;;;;;;14.43;9.65;;;1.10;99.90;;;;;;6205556;28;20061;-85
2021/03/01 04:42:44;;;;;;;17.17;10.27;;;1.00;99.90;;;;;;6172624;28;20038;-86
2021/03/01 04:45:45;;;;;;;14.30;9.98;;;1.60;99.90;;;;;;6189011;28;20472;-86
2021/03/01 04:48:46;;;;;;;17.13;10.50;;;1.20;99.90;;;;;;6173034;28;20033;-85
2021/03/01 04:51:46;;;;;;;18.67;10.82;;;1.10;99.90;;;;;;6189024;28;20060;-85
2021/03/01 04:54:48;;;;;;;17.70;10.48;;;1.20;99.90;;;;;;6204965;28;20041;-84
2021/03/01 04:57:49;;;;;;;20.17;13.37;;;1.40;99.90;;;;;;6188940;28;20057;-85
2021/03/01 05:00:49;;;;;;;22.33;11.93;;;1.30;99.90;;;;;;6188209;28;20030;-84
2021/03/01 05:03:51;;;;;;;23.02;13.15;;;1.20;99.90;;;;;;6188917;28;20030;-85
2021/03/01 05:06:52;;;;;;;17.92;11.32;;;1.20;99.90;;;;;;6188679;28;20029;-85
2021/03/01 05:09:52;;;;;;;15.50;10.00;;;1.10;99.90;;;;;;6188319;28;20084;-87
2021/03/01 05:12:53;;;;;;;18.75;9.70;;;1.20;99.90;;;;;;6188470;28;20175;-86
2021/03/01 05:15:53;;;;;;;19.70;10.80;;;1.10;99.90;;;;;;6171049;28;20535;-84
2021/03/01 05:18:54;;;;;;;16.95;10.68;;;1.10;99.90;;;;;;6188377;28;20022;-85
2021/03/01 05:21:55;;;;;;;18.70;12.15;;;1.90;99.90;;;;;;6187648;28;20034;-85
2021/03/01 05:24:55;;;;;;;17.50;10.82;;;1.10;99.90;;;;;;6188204;28;20040;-84
2021/03/01 05:27:56;;;;;;;15.85;10.85;;;2.20;99.90;;;;;;6188001;28;20026;-85
2021/03/01 05:30:57;;;;;;;18.05;10.77;;;;;;;;;;6188342;28;20033;-85
2021/03/01 05:33:58;;;;;;;14.20;10.13;;;1.10;99.90;;;;;;6204607;28;20036;-85
2021/03/01 05:36:59;;;;;;;17.38;9.75;;;0.90;99.90;;;;;;6204018;28;20476;-84
2021/03/01 05:40:00;;;;;;;19.90;10.73;;;0.90;99.90;;;;;;6171162;28;20034;-85
2021/03/01 05:43:01;;;;;;;18.08;11.98;;;0.80;99.90;;;;;;6220341;28;20068;-86
2021/03/01 05:46:08;;;;;;;14.75;9.75;;;0.60;99.90;;;;;;6187549;28;20033;-88
2021/03/01 05:49:09;;;;;;;16.20;10.23;;;;;;;;;;6171869;28;20034;-85
2021/03/01 05:52:11;;;;;;;15.50;9.68;;;0.60;99.90;;;;;;6203226;28;20044;-85
2021/03/01 05:55:11;;;;;;;23.42;11.88;;;0.40;99.90;;;;;;6171960;28;20026;-85
2021/03/01 05:58:12;;;;;;;15.52;9.57;;;0.40;99.90;;;;;;6203588;28;20037;-81
2021/03/01 06:01:13;;;;;;;19.80;10.32;;;0.40;99.90;;;;;;6170232;28;20124;-81
2021/03/01 06:04:13;;;;;;;14.85;10.05;;;1.00;99.90;;;;;;6202842;28;20034;-81
2021/03/01 06:07:14;;;;;;;19.02;11.75;;;0.20;99.90;;;;;;6219459;28;20049;-81
2021/03/01 06:10:15;;;;;;;17.48;11.07;;;1.90;99.90;;;;;;6218907;28;20539;-80
2021/03/01 06:13:16;;;;;;;17.50;10.48;;;0.10;99.90;;;;;;6199581;28;20046;-80
2021/03/01 06:16:17;;;;;;;17.48;11.85;;;1.20;99.90;;;;;;6219013;28;20049;-80
2021/03/01 06:19:47;;;;;;;31.08;19.15;;;2.00;99.90;;;;;;6202357;28;20033;-81
2021/03/01 06:22:49;;;;;;;26.50;11.63;;;0.40;99.90;;;;;;6203741;28;20026;-82
2021/03/01 06:25:50;;;;;;;18.95;12.77;;;;;;;;;;6185841;28;20097;-79
2021/03/01 06:29:14;;;;;;;20.70;12.05;;;0.70;99.90;;;;;;6186530;28;20036;-81
2021/03/01 06:32:15;;;;;;;22.60;13.75;;;0.60;99.90;;;;;;6176129;28;20049;-81
2021/03/01 06:35:27;;;;;;;50.15;26.15;;;0.60;99.90;;;;;;6202631;28;20026;-81
2021/03/01 06:38:35;;;;;;;16.15;11.80;;;0.60;99.90;;;;;;6201054;28;20026;-81
2021/03/01 06:41:35;;;;;;;22.35;14.00;;;0.70;99.90;;;;;;6201178;28;20090;-81
2021/03/01 06:44:36;;;;;;;18.45;11.77;;;0.60;99.90;;;;;;6202057;28;20083;-81
2021/03/01 06:47:46;;;;;;;21.05;14.68;;;0.80;99.90;;;;;;6201936;28;20025;-81
2021/03/01 06:50:53;;;;;;;17.30;10.63;;;0.80;99.90;;;;;;6219890;28;20431;-82
2021/03/01 06:54:01;;;;;;;21.02;12.40;;;0.90;99.90;;;;;;6185732;28;20558;-83
2021/03/01 06:57:02;;;;;;;19.77;11.45;;;;;;;;;;6201978;28;20061;-82
2021/03/01 07:00:04;;;;;;;18.42;11.02;;;2.20;99.20;;;;;;6216833;28;20024;-82
2021/03/01 07:03:05;;;;;;;;;;;2.80;98.00;;;;;;6201803;28;20389;-83
2021/03/01 07:06:07;;;;;;;16.50;10.90;;;3.40;99.90;;;;;;6201461;28;19913;-82
2021/03/01 07:09:13;;;;;;;15.93;10.25;;;3.70;99.30;;;;;;6185260;28;20065;-82
2021/03/01 07:12:14;;;;;;;17.08;11.48;;;5.70;93.30;;;;;;6185174;28;20081;-82
2021/03/01 07:15:15;;;;;;;17.40;10.43;;;5.00;91.40;;;;;;6201243;28;20488;-82
2021/03/01 07:18:15;;;;;;;17.73;10.70;;;5.10;91.00;;;;;;6217412;28;20029;-82
2021/03/01 07:21:16;;;;;;;16.55;11.13;;;6.00;89.90;;;;;;6200872;28;20033;-83
2021/03/01 07:24:18;;;;;;;14.75;10.60;;;6.50;87.30;;;;;;6166370;28;20037;-82
2021/03/01 07:27:19;;;;;;;14.73;10.05;;;7.00;86.10;;;;;;6200632;28;20084;-81
2021/03/01 07:30:20;;;;;;;13.60;9.75;;;7.60;83.20;;;;;;6199410;28;20040;-82
2021/03/01 07:33:21;;;;;;;14.40;9.70;;;;;;;;;;6162030;28;20041;-82
2021/03/01 07:36:22;;;;;;;14.20;9.68;;;8.00;78.00;;;;;;6197979;28;20030;-82
2021/03/01 07:39:23;;;;;;;16.02;11.07;;;7.80;81.20;;;;;;6199995;28;20049;-82
2021/03/01 07:42:23;;;;;;;15.23;10.95;;;8.30;80.30;;;;;;6182875;28;20025;-83
2021/03/01 07:45:24;;;;;;;13.20;10.55;;;8.50;78.90;;;;;;6200832;28;20034;-83
2021/03/01 07:48:36;;;;;;;16.95;10.95;;;8.50;78.10;;;;;;6200996;28;20041;-87
2021/03/01 07:51:42;;;;;;;13.85;10.50;;;8.90;75.30;;;;;;6184583;28;20041;-91
2021/03/01 07:55:02;;;;;;;15.73;9.23;;;9.30;76.40;;;;;;6197646;28;20092;-85
2021/03/01 07:58:04;;;;;;;14.77;10.07;;;9.90;73.20;;;;;;6183122;28;20160;-89
2021/03/01 08:01:14;;;;;;;15.32;10.70;;;9.90;74.60;;;;;;6184791;28;20036;-84
2021/03/01 08:04:32;;;;;;;14.27;10.57;;;10.20;76.30;;;;;;6183797;28;20041;-86
2021/03/01 08:07:40;;;;;;;15.25;10.43;;;10.80;73.20;;;;;;6179512;28;20546;-84
2021/03/01 08:10:40;;;;;;;14.85;9.60;;;10.80;73.00;;;;;;6200185;28;20034;-85
2021/03/01 08:13:41;;;;;;;16.13;9.27;;;11.10;86.20;;;;;;6218638;28;20487;-86
2021/03/01 08:16:42;;;;;;;13.10;8.63;;;11.70;69.50;;;;;;6174560;28;20058;-86
2021/03/01 08:19:43;;;;;;;17.20;10.48;;;11.70;69.00;;;;;;6176694;28;20440;-84
2021/03/01 08:23:02;;;;;;;15.18;9.60;;;12.30;65.80;;;;;;6194468;28;20034;-84
2021/03/01 08:26:03;;;;;;;13.02;9.20;;;12.70;76.90;;;;;;6192889;28;20081;-86
2021/03/01 08:29:16;;;;;;;13.48;8.98;;;12.90;65.50;;;;;;6175956;28;20041;-85
2021/03/01 08:32:17;;;;;;;14.43;9.70;;;13.10;65.20;;;;;;6158417;28;20067;-88
2021/03/01 08:35:24;;;;;;;14.80;9.68;;;12.80;65.00;;;;;;6176544;28;20161;-85
2021/03/01 08:38:40;;;;;;;18.52;11.45;;;13.00;62.90;;;;;;6176427;28;20065;-88
2021/03/01 08:41:43;;;;;;;24.70;12.45;;;13.20;65.20;;;;;;6192842;28;20026;-84
2021/03/01 08:44:43;;;;;;;34.00;17.15;;;13.20;65.10;;;;;;6175507;28;20392;-85
2021/03/01 08:47:47;;;;;;;58.47;27.25;;;13.20;64.80;;;;;;6174985;28;20042;-86
2021/03/01 08:50:49;;;;;;;24.67;13.00;;;13.30;64.50;;;;;;6193211;28;20500;-89
2021/03/01 08:53:53;;;;;;;13.90;9.77;;;13.10;63.20;;;;;;6196192;28;20516;-86
2021/03/01 08:57:04;;;;;;;12.77;9.50;;;13.30;64.80;;;;;;6179861;28;20041;-86
2021/03/01 09:00:09;;;;;;;16.05;10.15;;;13.50;64.10;;;;;;6180902;28;20026;-88
2021/03/01 09:03:17;;;;;;;12.48;9.10;;;13.70;62.00;;;;;;6195909;28;20034;-90
2021/03/01 09:06:21;;;;;;;14.00;10.10;;;13.80;60.10;;;;;;6164815;28;20034;-87
2021/03/01 09:09:22;;;;;;;14.52;10.55;;;13.90;64.00;;;;;;6179775;28;20030;-87
2021/03/01 09:12:24;;;;;;;14.10;11.30;;;14.60;63.20;;;;;;6196774;28;20053;-87
2021/03/01 09:15:24;;;;;;;16.67;10.77;;;14.40;61.00;;;;;;6179528;28;20069;-90
2021/03/01 09:18:27;;;;;;;16.42;11.45;;;14.70;61.50;;;;;;6196235;28;20030;-86
2021/03/01 09:21:28;;;;;;;13.48;10.63;;;14.90;59.30;;;;;;6196157;28;20495;-90
2021/03/01 09:24:30;;;;;;;17.40;12.52;;;15.60;60.00;;;;;;6179503;28;20037;-90
2021/03/01 09:27:31;;;;;;;15.90;11.85;;;15.90;59.30;;;;;;6179601;28;20035;-84
2021/03/01 09:30:32;;;;;;;15.32;11.65;;;16.30;57.90;;;;;;6195369;28;20096;-83
2021/03/01 09:33:33;;;;;;;13.75;11.70;;;;;;;;;;6179137;28;20042;-86
2021/03/01 09:36:34;;;;;;;15.70;11.90;;;17.10;52.00;;;;;;6195505;28;20030;-87
2021/03/01 09:39:37;;;;;;;15.95;12.75;;;17.20;55.90;;;;;;6179445;28;20025;-84
2021/03/01 09:42:38;;;;;;;18.30;12.32;;;17.90;56.20;;;;;;6180018;28;20038;-86
2021/03/01 09:45:38;;;;;;;17.65;12.90;;;18.10;53.70;;;;;;6179291;28;20037;-85
2021/03/01 09:48:50;;;;;;;17.55;12.70;;;17.90;52.30;;;;;;6193342;28;20037;-85
2021/03/01 09:51:52;;;;;;;16.17;13.00;;;;;;;;;;6179421;28;20476;-86
2021/03/01 09:54:53;;;;;;;15.40;12.63;;;;;;;;;;6178673;28;20034;-85
2021/03/01 09:57:53;;;;;;;17.40;12.73;;;18.20;58.20;;;;;;6178942;28;20026;-84
2021/03/01 10:01:07;;;;;;;16.02;12.65;;;18.10;80.20;;;;;;6194512;28;20050;-87
2021/03/01 10:04:08;;;;;;;15.40;12.63;;;18.20;51.90;;;;;;6211686;28;20030;-86
2021/03/01 10:07:16;;;;;;;16.65;12.38;;;18.00;63.00;;;;;;6192671;28;20042;-84
2021/03/01 10:10:17;;;;;;;20.65;13.05;;;18.40;52.30;;;;;;6179068;28;20045;-87
2021/03/01 10:13:29;;;;;;;19.95;11.85;;;18.10;52.10;;;;;;6175650;28;20042;-85
2021/03/01 10:16:30;;;;;;;19.20;14.15;;;18.40;65.00;;;;;;6178325;28;20050;-85
2021/03/01 10:19:37;;;;;;;13.93;11.95;;;18.20;64.10;;;;;;6194180;28;20034;-88
2021/03/01 10:22:57;;;;;;;17.15;12.25;;;18.50;63.90;;;;;;6191367;28;20548;-87
2021/03/01 10:26:18;;;;;;;16.80;13.02;;;17.90;51.10;;;;;;6176993;28;20515;-84
2021/03/01 10:29:32;;;;;;;15.82;13.10;;;18.10;51.60;;;;;;6193034;28;20034;-86
2021/03/01 10:32:33;;;;;;;19.10;12.80;;;18.00;52.20;;;;;;6177579;28;20043;-87
2021/03/01 10:35:34;;;;;;;16.25;11.77;;;17.70;63.30;;;;;;6177973;28;20376;-84
2021/03/01 10:39:08;;;;;;;19.05;13.00;;;17.60;63.50;;;;;;6193913;28;20026;-85
2021/03/01 10:42:12;;;;;;;14.82;11.98;;;17.90;60.30;;;;;;6162684;28;20046;-84
2021/03/01 10:45:14;;;;;;;16.10;11.75;;;18.10;51.20;;;;;;6194155;28;20365;-85
2021/03/01 10:48:14;;;;;;;17.05;12.52;;;18.00;50.30;;;;;;6177368;28;20057;-85
2021/03/01 10:51:15;;;;;;;17.20;13.10;;;18.00;51.50;;;;;;6177156;28;20487;-83
2021/03/01 10:54:15;;;;;;;16.83;12.68;;;17.80;53.00;;;;;;6178058;28;20390;-84
2021/03/01 10:57:16;;;;;;;19.48;12.35;;;17.40;52.20;;;;;;6210355;28;20030;-84
2021/03/01 11:00:17;;;;;;;16.83;13.23;;;17.50;53.60;;;;;;6194014;28;20409;-85
2021/03/01 11:03:18;;;;;;;16.92;12.88;;;17.60;52.10;;;;;;6177081;28;20436;-86
2021/03/01 11:06:18;;;;;;;17.40;13.05;;;17.10;52.30;;;;;;6194097;28;20026;-85
2021/03/01 11:09:19;;;;;;;17.98;13.40;;;17.80;52.30;;;;;;6176283;28;20034;-87
2021/03/01 11:12:20;;;;;;;20.23;14.50;;;17.80;52.20;;;;;;6190659;28;20472;-84
2021/03/01 11:15:21;;;;;;;19.25;13.63;;;17.80;52.60;;;;;;6176218;28;20501;-87
2021/03/01 11:18:21;;;;;;;20.85;14.60;;;17.50;53.50;;;;;;6177007;28;20078;-84
2021/03/01 11:21:22;;;;;;;18.38;14.60;;;17.50;54.60;;;;;;6176978;28;20088;-85
2021/03/01 11:24:23;;;;;;;16.85;13.30;;;17.30;54.30;;;;;;6175850;28;20026;-84
2021/03/01 11:27:24;;;;;;;21.08;14.10;;;17.20;53.80;;;;;;6191559;28;20029;-85
2021/03/01 11:30:24;;;;;;;18.98;14.18;;;17.00;54.70;;;;;;6175418;28;20038;-84
2021/03/01 11:33:26;;;;;;;18.25;13.82;;;18.30;54.40;;;;;;6192027;28;20050;-87
2021/03/01 11:36:27;;;;;;;20.65;13.95;;;16.90;55.90;;;;;;6178074;28;20037;-84
2021/03/01 11:39:28;;;;;;;17.98;13.25;;;17.10;54.70;;;;;;6183259;28;20062;-84
2021/03/01 11:42:28;;;;;;;19.45;14.98;;;17.10;55.80;;;;;;6198357;28;20037;-85
2021/03/01 11:45:30;;;;;;;19.27;13.95;;;17.00;56.00;;;;;;6193647;28;20069;-84
2021/03/01 11:48:31;;;;;;;17.13;12.93;;;16.80;55.40;;;;;;6192852;28;20037;-85
2021/03/01 11:51:31;;;;;;;19.17;14.65;;;16.80;56.80;;;;;;6175143;28;20469;-86
2021/03/01 11:54:32;;;;;;;22.55;15.85;;;16.80;55.70;;;;;;6174904;28;20030;-84
2021/03/01 11:57:33;;;;;;;34.95;19.48;;;18.20;57.10;;;;;;6176350;28;20127;-84
2021/03/01 12:00:34;;;;;;;24.48;15.88;;;16.80;55.80;;;;;;6193079;28;20088;-84
2021/03/01 12:03:35;;;;;;;24.10;12.10;;;16.80;56.00;;;;;;6193431;28;20417;-87
2021/03/01 12:06:36;;;;;;;32.60;12.73;;;17.00;62.30;;;;;;6176692;28;20072;-84
2021/03/01 12:09:36;;;;;;;23.52;13.40;;;17.50;62.00;;;;;;6176253;28;20539;-84
2021/03/01 12:12:37;;;;;;;19.85;13.27;;;17.80;59.70;;;;;;6191704;28;20081;-83
2021/03/01 12:15:38;;;;;;;18.27;13.75;;;17.80;55.80;;;;;;6176084;28;20499;-83
2021/03/01 12:18:38;;;;;;;17.08;13.38;;;18.10;55.70;;;;;;6192465;28;20505;-82
2021/03/01 12:21:39;;;;;;;20.05;14.48;;;16.90;57.60;;;;;;6192738;28;20035;-80
2021/03/01 12:24:40;;;;;;;20.38;15.32;;;16.80;57.20;;;;;;6192396;28;20859;-83
2021/03/01 12:27:41;;;;;;;18.23;14.10;;;16.90;56.10;;;;;;6197375;28;20495;-85
2021/03/01 12:30:42;;;;;;;20.35;14.45;;;17.00;58.10;;;;;;6164789;28;20274;-82
2021/03/01 12:33:42;;;;;;;19.00;12.50;;;16.80;57.80;;;;;;6179773;28;20437;-82
2021/03/01 12:36:43;;;;;;;18.73;13.05;;;16.80;58.20;;;;;;6198432;28;20540;-81
2021/03/01 12:39:44;;;;;;;14.45;11.52;;;17.10;59.90;;;;;;6197240;28;20038;-85
2021/03/01 12:42:44;;;;;;;16.02;12.40;;;17.00;60.10;;;;;;6180830;28;20034;-81
2021/03/01 12:45:45;;;;;;;18.73;13.90;;;16.80;60.80;;;;;;6182180;28;20030;-83
2021/03/01 12:48:46;;;;;;;19.70;13.82;;;16.60;59.40;;;;;;6198431;28;20041;-82
2021/03/01 12:51:46;;;;;;;16.17;12.90;;;16.40;59.40;;;;;;6197829;28;20080;-82
2021/03/01 12:54:48;;;;;;;18.20;13.70;;;16.30;59.90;;;;;;6180492;28;20460;-81
2021/03/01 12:57:48;;;;;;;19.63;14.48;;;16.30;58.70;;;;;;6180498;28;20037;-82
2021/03/01 13:00:49;;;;;;;15.95;12.63;;;15.80;59.00;;;;;;6180307;28;20667;-84
2021/03/01 13:03:50;;;;;;;18.10;14.38;;;15.60;59.70;;;;;;6196695;28;20034;-83
2021/03/01 13:06:51;;;;;;;21.70;13.95;;;15.80;60.10;;;;;;6196282;28;20030;-83
2021/03/01 13:09:51;;;;;;;17.23;12.82;;;15.60;59.10;;;;;;6179969;28;20026;-82
2021/03/01 13:12:52;;;;;;;17.15;12.38;;;15.70;59.80;;;;;;6195761;28;20069;-83
2021/03/01 13:15:53;;;;;;;15.73;12.65;;;15.50;58.20;;;;;;6195698;28;20157;-84
2021/03/01 13:18:54;;;;;;;18.52;13.10;;;15.60;60.50;;;;;;6193800;28;20037;-84
2021/03/01 13:21:54;;;;;;;16.50;13.30;;;15.60;60.50;;;;;;6178725;28;20076;-83
2021/03/01 13:24:55;;;;;;;16.42;12.85;;;15.60;60.80;;;;;;6178750;28;20018;-83
2021/03/01 13:27:58;;;;;;;18.05;12.38;;;15.80;60.40;;;;;;6196288;28;20053;-88
2021/03/01 13:30:59;;;;;;;19.77;13.90;;;16.10;57.10;;;;;;6195621;28;20177;-83
2021/03/01 13:34:00;;;;;;;19.13;14.05;;;15.50;60.10;;;;;;6195647;28;20027;-84
2021/03/01 13:37:00;;;;;;;17.42;12.98;;;15.30;61.40;;;;;;6194581;28;20077;-83
2021/03/01 13:40:01;;;;;;;21.13;13.85;;;15.30;61.80;;;;;;6179451;28;20062;-83
2021/03/01 13:43:02;;;;;;;19.00;13.90;;;15.30;60.70;;;;;;6179405;28;20040;-83
2021/03/01 13:46:02;;;;;;;19.42;13.65;;;15.30;60.70;;;;;;6178817;28;20026;-83
2021/03/01 13:49:03;;;;;;;18.90;14.25;;;15.30;61.20;;;;;;6195311;28;20428;-83
2021/03/01 13:52:04;;;;;;;18.10;13.18;;;15.30;61.50;;;;;;6194857;28;20034;-83
2021/03/01 13:55:05;;;;;;;17.33;12.15;;;15.30;60.90;;;;;;6179137;28;20420;-82
2021/03/01 13:58:06;;;;;;;18.17;12.75;;;15.00;90.60;;;;;;6177921;28;20041;-83
2021/03/01 14:01:07;;;;;;;16.90;12.80;;;15.10;90.20;;;;;;6178827;28;20038;-84
2021/03/01 14:04:08;;;;;;;24.42;13.27;;;;;;;;;;6195264;28;20031;-83
2021/03/01 14:07:09;;;;;;;17.73;12.73;;;15.30;74.00;;;;;;6196199;28;20042;-83
2021/03/01 14:10:10;;;;;;;15.50;12.85;;;15.30;72.30;;;;;;6178802;28;20125;-83
2021/03/01 14:13:11;;;;;;;17.48;12.98;;;;;;;;;;6178518;28;20038;-83
2021/03/01 14:16:12;;;;;;;19.15;13.32;;;15.10;69.50;;;;;;6194324;28;20054;-84
2021/03/01 14:19:13;;;;;;;17.30;13.02;;;15.10;72.80;;;;;;6193011;28;20061;-83
2021/03/01 14:22:13;;;;;;;19.30;12.57;;;14.90;73.30;;;;;;6194674;28;20034;-84
2021/03/01 14:25:14;;;;;;;17.40;13.57;;;;;;;;;;6194515;28;20096;-84
2021/03/01 14:28:15;;;;;;;22.08;12.52;;;14.60;71.50;;;;;;6210301;28;20054;-84
2021/03/01 14:31:16;;;;;;;19.52;12.77;;;;;;;;;;6194284;28;20386;-83
2021/03/01 14:34:17;;;;;;;20.33;13.20;;;14.80;72.00;;;;;;6210649;28;20061;-83
2021/03/01 14:37:17;;;;;;;17.55;12.23;;;14.70;62.00;;;;;;6193827;28;20038;-85
2021/03/01 14:40:18;;;;;;;16.63;12.63;;;14.70;63.00;;;;;;6161899;28;20041;-83
2021/03/01 14:43:19;;;;;;;14.52;12.23;;;14.90;63.00;;;;;;6209971;28;20038;-85
2021/03/01 14:46:20;;;;;;;17.02;12.18;;;15.50;63.10;;;;;;6177495;28;20041;-83
2021/03/01 14:49:21;;;;;;;17.88;12.10;;;14.70;64.20;;;;;;6209706;28;20038;-84
2021/03/01 14:52:22;;;;;;;12.63;10.13;;;14.70;65.10;;;;;;6189305;28;20046;-78
2021/03/01 14:55:22;;;;;;;20.80;12.80;;;14.60;69.90;;;;;;6192922;28;20057;-80
2021/03/01 14:58:24;;;;;;;17.83;12.18;;;14.60;65.70;;;;;;6206699;28;20507;-80
2021/03/01 15:01:25;;;;;;;16.58;12.77;;;14.90;63.60;;;;;;6176194;28;20057;-82
2021/03/01 15:04:25;;;;;;;19.98;12.23;;;15.00;80.80;;;;;;6193490;28;20014;-90
2021/03/01 15:07:26;;;;;;;17.70;12.52;;;15.30;62.80;;;;;;6176974;28;20440;-85
2021/03/01 15:10:27;;;;;;;16.67;11.70;;;15.00;61.50;;;;;;6193544;28;20034;-85
2021/03/01 15:13:29;;;;;;;14.65;11.50;;;15.00;64.90;;;;;;6176602;28;20057;-83
2021/03/01 15:16:30;;;;;;;15.70;13.10;;;15.00;62.80;;;;;;6192827;28;20270;-84
2021/03/01 15:19:31;;;;;;;18.83;12.55;;;14.80;62.70;;;;;;6176419;28;20066;-83
2021/03/01 15:22:31;;;;;;;18.40;11.88;;;14.40;80.00;;;;;;6176068;28;20045;-83
2021/03/01 15:25:32;;;;;;;17.55;13.38;;;14.40;63.00;;;;;;6192565;28;20077;-81
2021/03/01 15:28:33;;;;;;;16.65;12.20;;;14.50;63.10;;;;;;6176572;28;20030;-83
2021/03/01 15:31:34;;;;;;;20.15;14.00;;;14.10;62.70;;;;;;6193166;28;20495;-83
2021/03/01 15:34:35;;;;;;;19.65;13.05;;;14.00;63.40;;;;;;6193307;28;20441;-83
2021/03/01 15:37:35;;;;;;;18.20;13.45;;;14.00;64.00;;;;;;6193475;28;20120;-83
2021/03/01 15:40:36;;;;;;;18.42;13.65;;;13.80;63.50;;;;;;6176499;28;20689;-84
2021/03/01 15:43:37;;;;;;;20.75;13.43;;;13.70;64.00;;;;;;6177218;28;20374;-83
2021/03/01 15:46:38;;;;;;;19.63;13.63;;;13.90;65.20;;;;;;6174610;28;20030;-84